createdAt,value
2019-06-23T00:00:38.287Z,17.10
2019-06-23T00:03:07.359Z,17.00
2019-06-23T00:05:37.199Z,17.00
2019-06-23T00:08:07.353Z,17.00
2019-06-23T00:10:40.445Z,17.00
2019-06-23T00:13:09.534Z,17.00
2019-06-23T00:15:40.050Z,16.90
2019-06-23T00:18:13.546Z,16.90
2019-06-23T00:20:42.708Z,16.90
2019-06-23T00:23:11.821Z,16.90
2019-06-23T00:25:40.947Z,16.90
2019-06-23T00:28:09.999Z,16.80
2019-06-23T00:30:41.091Z,16.80
2019-06-23T00:33:10.194Z,16.80
2019-06-23T00:35:39.279Z,16.80
2019-06-23T00:38:08.608Z,16.70
2019-06-23T00:40:38.242Z,16.70
2019-06-23T00:43:07.366Z,16.60
2019-06-23T00:45:36.412Z,16.50
2019-06-23T00:48:05.617Z,16.40
2019-06-23T00:50:34.584Z,16.40
2019-06-23T00:53:03.895Z,16.40
2019-06-23T00:55:33.054Z,16.40
2019-06-23T00:58:03.593Z,16.50
2019-06-23T01:00:37.278Z,16.50
2019-06-23T01:03:08.141Z,16.50
2019-06-23T01:05:37.148Z,16.50
2019-06-23T01:08:06.294Z,16.50
2019-06-23T01:10:35.452Z,16.50
2019-06-23T01:13:04.761Z,16.50
2019-06-23T01:15:33.811Z,16.50
2019-06-23T01:18:02.854Z,16.50
2019-06-23T01:20:31.912Z,16.40
2019-06-23T01:23:00.938Z,16.40
2019-06-23T01:25:31.446Z,16.40
2019-06-23T01:28:00.562Z,16.30
2019-06-23T01:30:29.919Z,16.40
2019-06-23T01:32:58.904Z,16.40
2019-06-23T01:35:28.296Z,16.40
2019-06-23T01:37:57.371Z,16.40
2019-06-23T01:40:26.482Z,16.40
2019-06-23T01:42:55.655Z,16.40
2019-06-23T01:45:24.860Z,16.40
2019-06-23T01:47:53.891Z,16.30
2019-06-23T01:50:22.985Z,16.30
2019-06-23T01:52:52.079Z,16.30
2019-06-23T01:55:21.076Z,16.20
2019-06-23T01:57:50.178Z,15.90
2019-06-23T02:00:19.631Z,16.00
2019-06-23T02:02:48.773Z,16.00
2019-06-23T02:05:18.985Z,16.00
2019-06-23T02:07:48.178Z,16.00
2019-06-23T02:10:17.413Z,16.00
2019-06-23T02:12:46.582Z,15.90
2019-06-23T02:15:16.964Z,15.90
2019-06-23T02:17:46.480Z,15.90
2019-06-23T02:20:17.454Z,15.90
2019-06-23T02:22:48.091Z,15.90
2019-06-23T02:25:17.280Z,15.90
2019-06-23T02:27:46.591Z,15.90
2019-06-23T02:30:16.059Z,15.90
2019-06-23T02:32:45.216Z,15.90
2019-06-23T02:35:14.391Z,15.90
2019-06-23T02:37:43.444Z,15.80
2019-06-23T02:40:12.769Z,15.70
2019-06-23T02:42:41.928Z,15.60
2019-06-23T02:45:11.539Z,15.60
2019-06-23T02:48:02.398Z,15.60
2019-06-23T02:50:38.067Z,15.50
2019-06-23T02:53:11.587Z,15.60
2019-06-23T02:55:46.629Z,15.50
2019-06-23T02:58:32.334Z,15.50
2019-06-23T03:01:01.549Z,15.50
2019-06-23T03:03:30.714Z,15.50
2019-06-23T03:05:59.770Z,15.50
2019-06-23T03:08:29.019Z,15.50
2019-06-23T03:10:58.080Z,15.50
2019-06-23T03:13:27.045Z,15.60
2019-06-23T03:15:56.453Z,15.60
2019-06-23T03:18:25.723Z,15.60
2019-06-23T03:20:54.775Z,15.60
2019-06-23T03:23:24.117Z,15.30
2019-06-23T03:26:15.935Z,15.30
2019-06-23T03:28:45.561Z,15.40
2019-06-23T03:31:18.010Z,15.40
2019-06-23T03:33:47.331Z,15.50
2019-06-23T03:36:17.255Z,15.50
2019-06-23T03:38:48.607Z,15.50
2019-06-23T03:41:18.051Z,15.50
2019-06-23T03:43:47.356Z,15.40
2019-06-23T03:46:16.450Z,15.50
2019-06-23T03:48:45.631Z,15.60
2019-06-23T03:51:14.876Z,15.60
2019-06-23T03:53:44.419Z,15.60
2019-06-23T03:56:13.397Z,15.60
2019-06-23T03:58:42.485Z,15.60
2019-06-23T04:01:11.589Z,15.60
2019-06-23T04:03:40.874Z,15.50
2019-06-23T04:06:10.442Z,15.60
2019-06-23T04:08:39.618Z,15.40
2019-06-23T04:11:08.711Z,15.40
2019-06-23T04:13:37.770Z,15.40
2019-06-23T04:16:07.013Z,15.60
2019-06-23T04:18:36.182Z,15.70
2019-06-23T04:21:05.951Z,15.80
2019-06-23T04:23:35.060Z,15.90
2019-06-23T04:26:04.277Z,15.90
2019-06-23T04:28:33.436Z,16.00
2019-06-23T04:31:02.553Z,16.10
2019-06-23T04:33:31.662Z,16.10
2019-06-23T04:36:07.371Z,16.10
2019-06-23T04:38:31.560Z,16.10
2019-06-23T04:41:00.745Z,16.00
2019-06-23T04:43:29.817Z,16.00
2019-06-23T04:45:58.973Z,16.10
2019-06-23T04:48:29.940Z,15.90
2019-06-23T04:50:58.967Z,15.90
2019-06-23T04:53:28.498Z,15.80
2019-06-23T04:55:57.614Z,16.00
2019-06-23T04:58:26.641Z,16.10
2019-06-23T05:00:55.786Z,16.20
2019-06-23T05:03:25.832Z,16.30
2019-06-23T05:05:54.848Z,16.40
2019-06-23T05:08:24.005Z,16.40
2019-06-23T05:10:53.005Z,16.40
2019-06-23T05:13:22.055Z,16.40
2019-06-23T05:15:51.333Z,16.30
2019-06-23T05:18:20.390Z,16.30
2019-06-23T05:20:49.670Z,16.40
2019-06-23T05:23:18.787Z,16.40
2019-06-23T05:25:48.242Z,16.40
2019-06-23T05:28:17.289Z,16.50
2019-06-23T05:30:46.654Z,16.60
2019-06-23T05:33:15.821Z,16.80
2019-06-23T05:35:44.888Z,16.70
2019-06-23T05:38:13.880Z,16.70
2019-06-23T05:40:43.083Z,16.70
2019-06-23T05:43:12.091Z,16.60
2019-06-23T05:45:41.212Z,16.60
2019-06-23T05:48:10.287Z,16.70
2019-06-23T05:50:39.815Z,16.80
2019-06-23T05:53:10.011Z,16.90
2019-06-23T05:55:39.124Z,17.10
2019-06-23T05:58:08.089Z,17.20
2019-06-23T06:00:37.243Z,17.30
2019-06-23T06:03:06.474Z,17.40
2019-06-23T06:05:35.694Z,17.60
2019-06-23T06:08:05.234Z,17.70
2019-06-23T06:10:34.396Z,17.80
2019-06-23T06:13:03.776Z,17.90
2019-06-23T06:15:32.978Z,17.90
2019-06-23T06:18:02.148Z,17.90
2019-06-23T06:20:31.227Z,17.90
2019-06-23T06:23:00.335Z,17.80
2019-06-23T06:25:32.693Z,17.80
2019-06-23T06:28:02.015Z,17.80
2019-06-23T06:30:31.532Z,17.80
2019-06-23T06:33:00.779Z,18.00
2019-06-23T06:35:29.857Z,18.10
2019-06-23T06:37:58.977Z,18.30
2019-06-23T06:40:28.150Z,18.30
2019-06-23T06:42:57.327Z,18.50
2019-06-23T06:45:26.331Z,18.60
2019-06-23T06:47:55.374Z,18.90
2019-06-23T06:50:24.346Z,19.10
2019-06-23T06:52:53.280Z,19.00
2019-06-23T06:55:22.355Z,18.90
2019-06-23T06:57:51.243Z,18.80
2019-06-23T07:00:22.627Z,18.90
2019-06-23T07:02:51.729Z,19.10
2019-06-23T07:05:20.727Z,19.30
2019-06-23T07:07:49.667Z,19.40
2019-06-23T07:10:18.712Z,19.60
2019-06-23T07:12:47.688Z,19.40
2019-06-23T07:15:16.817Z,19.70
2019-06-23T07:17:45.856Z,19.80
2019-06-23T07:20:14.914Z,19.90
2019-06-23T07:22:43.911Z,20.20
2019-06-23T07:25:12.938Z,20.60
2019-06-23T07:27:42.058Z,20.80
2019-06-23T07:30:36.520Z,21.20
2019-06-23T07:33:05.546Z,21.50
2019-06-23T07:35:34.504Z,21.70
2019-06-23T07:38:03.428Z,22.00
2019-06-23T07:40:32.728Z,22.10
2019-06-23T07:43:01.852Z,22.30
2019-06-23T07:45:30.856Z,22.10
2019-06-23T07:47:59.736Z,22.40
2019-06-23T07:50:28.735Z,22.80
2019-06-23T07:52:57.639Z,22.70
2019-06-23T07:55:26.605Z,22.50
2019-06-23T07:57:55.498Z,22.50
2019-06-23T08:00:24.449Z,22.60
2019-06-23T08:02:53.411Z,22.70
2019-06-23T08:05:22.397Z,23.20
2019-06-23T08:07:58.947Z,23.90
2019-06-23T08:10:22.310Z,24.60
2019-06-23T08:12:51.266Z,24.30
2019-06-23T08:15:20.260Z,24.60
2019-06-23T08:17:49.363Z,24.30
2019-06-23T08:20:18.431Z,24.70
2019-06-23T08:22:47.446Z,25.40
2019-06-23T08:25:16.511Z,25.20
2019-06-23T08:27:45.546Z,25.30
2019-06-23T08:30:14.973Z,25.30
2019-06-23T08:32:43.891Z,25.60
2019-06-23T08:35:12.894Z,25.50
2019-06-23T08:37:41.854Z,25.80
2019-06-23T08:40:10.925Z,25.80
2019-06-23T08:42:39.866Z,26.00
2019-06-23T08:45:08.824Z,26.10
2019-06-23T08:47:37.790Z,26.60
2019-06-23T08:50:06.999Z,26.00
2019-06-23T08:52:35.899Z,26.50
2019-06-23T08:55:05.287Z,27.00
2019-06-23T08:57:34.721Z,27.20
2019-06-23T09:00:04.571Z,26.30
2019-06-23T09:02:33.788Z,26.30
2019-06-23T09:05:02.913Z,26.40
2019-06-23T09:07:31.875Z,26.80
2019-06-23T09:10:00.896Z,26.60
2019-06-23T09:12:29.956Z,27.00
2019-06-23T09:14:59.060Z,26.50
2019-06-23T09:17:27.999Z,26.60
2019-06-23T09:19:57.205Z,27.30
2019-06-23T09:22:26.151Z,27.40
2019-06-23T09:24:55.126Z,27.60
2019-06-23T09:27:24.206Z,28.00
2019-06-23T09:29:53.141Z,28.10
2019-06-23T09:32:22.211Z,28.40
2019-06-23T09:34:59.906Z,28.60
2019-06-23T09:37:28.514Z,27.80
2019-06-23T09:39:57.562Z,27.00
2019-06-23T09:42:26.479Z,26.60
2019-06-23T09:44:55.482Z,26.60
2019-06-23T09:47:24.605Z,26.60
2019-06-23T09:49:53.561Z,26.50
2019-06-23T09:52:22.452Z,26.60
2019-06-23T09:54:51.474Z,26.50
2019-06-23T09:57:20.339Z,27.30
2019-06-23T09:59:49.338Z,28.00
2019-06-23T10:02:18.283Z,28.50
2019-06-23T10:04:47.266Z,28.40
2019-06-23T10:07:16.343Z,28.60
2019-06-23T10:09:45.379Z,28.30
2019-06-23T10:12:14.392Z,28.70
2019-06-23T10:14:43.362Z,27.90
2019-06-23T10:17:12.353Z,27.80
2019-06-23T10:19:41.379Z,27.90
2019-06-23T10:22:10.712Z,28.50
2019-06-23T10:24:39.658Z,28.30
2019-06-23T10:27:08.591Z,28.60
2019-06-23T10:29:37.646Z,29.00
2019-06-23T10:32:06.721Z,29.30
2019-06-23T10:34:35.674Z,29.40
2019-06-23T10:37:04.694Z,28.90
2019-06-23T10:39:33.713Z,28.90
2019-06-23T10:42:02.669Z,29.00
2019-06-23T10:44:31.788Z,29.20
2019-06-23T10:47:00.923Z,29.00
2019-06-23T10:49:30.259Z,29.00
2019-06-23T10:51:59.238Z,29.20
2019-06-23T10:54:28.198Z,28.50
2019-06-23T10:56:57.248Z,27.90
2019-06-23T10:59:26.215Z,28.00
2019-06-23T11:01:55.251Z,28.00
2019-06-23T11:04:24.515Z,28.10
2019-06-23T11:06:53.548Z,27.60
2019-06-23T11:09:35.118Z,27.40
2019-06-23T11:11:53.062Z,27.50
2019-06-23T11:14:22.065Z,27.60
2019-06-23T11:16:51.136Z,27.80
2019-06-23T11:19:22.142Z,28.10
2019-06-23T11:21:50.815Z,28.30
2019-06-23T11:24:19.779Z,28.60
2019-06-23T11:26:48.736Z,28.80
2019-06-23T11:29:17.631Z,28.70
2019-06-23T11:31:46.503Z,28.70
2019-06-23T11:34:15.513Z,28.40
2019-06-23T11:36:44.474Z,28.30
2019-06-23T11:39:13.461Z,28.30
2019-06-23T11:41:42.335Z,28.00
2019-06-23T11:44:11.308Z,28.10
2019-06-23T11:46:40.254Z,27.90
2019-06-23T11:49:09.212Z,27.90
2019-06-23T11:51:38.215Z,28.00
2019-06-23T11:54:07.279Z,28.10
2019-06-23T11:56:36.203Z,28.40
2019-06-23T11:59:05.576Z,28.40
2019-06-23T12:01:34.642Z,28.50
2019-06-23T12:04:03.791Z,28.50
2019-06-23T12:06:32.807Z,28.00
2019-06-23T12:09:04.817Z,27.60
2019-06-23T12:11:33.718Z,27.40
2019-06-23T12:14:02.738Z,27.70
2019-06-23T12:16:31.834Z,27.90
2019-06-23T12:19:00.751Z,27.50
2019-06-23T12:21:29.755Z,27.60
2019-06-23T12:23:58.731Z,27.60
2019-06-23T12:26:28.071Z,27.40
2019-06-23T12:28:57.021Z,27.50
2019-06-23T12:31:25.987Z,27.60
2019-06-23T12:33:54.903Z,27.40
2019-06-23T12:36:24.050Z,27.50
2019-06-23T12:38:52.925Z,27.40
2019-06-23T12:41:24.664Z,27.40
2019-06-23T12:43:52.847Z,27.30
2019-06-23T12:46:21.887Z,27.20
2019-06-23T12:48:50.827Z,27.20
2019-06-23T12:51:19.822Z,27.40
2019-06-23T12:53:48.767Z,27.30
2019-06-23T12:56:20.010Z,27.30
2019-06-23T12:58:49.141Z,27.20
2019-06-23T13:01:18.361Z,27.30
2019-06-23T13:03:47.431Z,27.30
2019-06-23T13:06:16.516Z,27.40
2019-06-23T13:08:45.603Z,27.60
2019-06-23T13:11:14.666Z,27.60
2019-06-23T13:13:43.579Z,27.30
2019-06-23T13:16:12.607Z,27.20
2019-06-23T13:18:41.636Z,27.30
2019-06-23T13:21:10.713Z,27.20
2019-06-23T13:23:39.678Z,27.20
2019-06-23T13:26:08.674Z,27.30
2019-06-23T13:28:37.790Z,27.20
2019-06-23T13:31:06.723Z,27.40
2019-06-23T13:33:35.805Z,27.60
2019-06-23T13:36:04.826Z,27.50
2019-06-23T13:38:33.722Z,27.40
2019-06-23T13:41:02.712Z,27.60
2019-06-23T13:43:31.660Z,27.70
2019-06-23T13:46:00.702Z,27.80
2019-06-23T13:48:29.738Z,27.90
2019-06-23T13:50:58.675Z,28.00
2019-06-23T13:53:27.642Z,28.00
2019-06-23T13:55:56.591Z,27.80
2019-06-23T13:58:25.509Z,27.80
2019-06-23T14:00:54.645Z,27.80
2019-06-23T14:03:23.619Z,27.70
2019-06-23T14:05:52.792Z,27.60
2019-06-23T14:08:35.855Z,27.40
2019-06-23T14:10:52.682Z,27.50
2019-06-23T14:13:21.752Z,27.60
2019-06-23T14:15:50.783Z,27.60
2019-06-23T14:18:21.054Z,27.60
2019-06-23T14:20:50.409Z,27.50
2019-06-23T14:23:19.779Z,27.60
2019-06-23T14:25:48.915Z,27.70
2019-06-23T14:28:17.914Z,27.50
2019-06-23T14:30:46.868Z,27.50
2019-06-23T14:33:15.958Z,27.60
2019-06-23T14:35:45.135Z,27.70
2019-06-23T14:38:14.448Z,27.40
2019-06-23T14:40:43.439Z,27.50
2019-06-23T14:43:12.391Z,27.60
2019-06-23T14:45:41.475Z,27.70
2019-06-23T14:48:10.511Z,27.70
2019-06-23T14:50:39.633Z,27.70
2019-06-23T14:53:08.811Z,27.80
2019-06-23T14:55:37.925Z,27.70
2019-06-23T14:58:06.936Z,27.70
2019-06-23T15:00:36.142Z,27.50
2019-06-23T15:03:09.342Z,27.50
2019-06-23T15:05:38.366Z,27.50
2019-06-23T15:08:07.611Z,27.50
2019-06-23T15:10:36.783Z,27.60
2019-06-23T15:13:05.676Z,27.60
2019-06-23T15:15:34.822Z,27.60
2019-06-23T15:18:03.873Z,27.60
2019-06-23T15:20:42.927Z,27.60
2019-06-23T15:23:03.812Z,27.70
2019-06-23T15:25:32.937Z,27.70
2019-06-23T15:28:01.970Z,27.60
2019-06-23T15:30:31.014Z,27.60
2019-06-23T15:33:00.055Z,27.60
2019-06-23T15:35:29.312Z,27.50
2019-06-23T15:37:58.412Z,27.50
2019-06-23T15:40:27.360Z,27.50
2019-06-23T15:42:56.345Z,27.60
2019-06-23T15:45:25.417Z,27.60
2019-06-23T15:47:54.482Z,27.60
2019-06-23T15:50:23.624Z,27.60
2019-06-23T15:52:52.716Z,27.70
2019-06-23T15:55:21.899Z,27.80
2019-06-23T15:57:50.974Z,27.70
2019-06-23T16:00:20.340Z,27.60
2019-06-23T16:02:49.489Z,27.60
2019-06-23T16:05:18.377Z,27.60
2019-06-23T16:07:49.043Z,27.50
2019-06-23T16:10:18.113Z,27.50
2019-06-23T16:12:47.751Z,27.50
2019-06-23T16:15:17.971Z,27.50
2019-06-23T16:17:46.952Z,27.40
2019-06-23T16:20:16.306Z,27.40
2019-06-23T16:22:45.326Z,27.40
2019-06-23T16:25:14.467Z,27.40
2019-06-23T16:27:43.499Z,27.40
2019-06-23T16:30:13.540Z,27.40
2019-06-23T16:32:42.638Z,27.40
2019-06-23T16:35:11.891Z,27.40
2019-06-23T16:37:40.943Z,27.40
2019-06-23T16:40:11.093Z,27.40
2019-06-23T16:42:40.064Z,27.40
2019-06-23T16:45:09.733Z,27.40
2019-06-23T16:47:38.873Z,27.40
2019-06-23T16:50:09.759Z,27.30
2019-06-23T16:52:50.920Z,27.20
2019-06-23T16:55:12.903Z,27.20
2019-06-23T16:57:40.435Z,27.30
2019-06-23T17:00:10.135Z,27.30
2019-06-23T17:02:39.104Z,27.20
2019-06-23T17:05:08.476Z,27.20
2019-06-23T17:07:37.402Z,27.20
2019-06-23T17:10:06.986Z,27.10
2019-06-23T17:12:49.433Z,27.10
2019-06-23T17:15:07.122Z,27.10
2019-06-23T17:17:36.125Z,27.10
2019-06-23T17:20:05.992Z,27.10
2019-06-23T17:22:34.991Z,27.10
2019-06-23T17:25:04.239Z,27.20
2019-06-23T17:27:33.434Z,27.10
2019-06-23T17:30:02.583Z,27.10
2019-06-23T17:32:31.652Z,27.10
2019-06-23T17:35:00.597Z,27.10
2019-06-23T17:37:29.635Z,27.10
2019-06-23T17:39:58.592Z,27.10
2019-06-23T17:42:27.565Z,27.00
2019-06-23T17:44:56.568Z,26.90
2019-06-23T17:47:25.631Z,26.90
2019-06-23T17:49:54.759Z,26.90
2019-06-23T17:52:23.804Z,26.80
2019-06-23T17:54:56.029Z,26.80
2019-06-23T17:57:25.082Z,26.80
2019-06-23T17:59:54.192Z,26.70
2019-06-23T18:02:23.127Z,26.60
2019-06-23T18:04:52.123Z,26.60
2019-06-23T18:07:21.124Z,26.60
2019-06-23T18:09:50.215Z,26.50
2019-06-23T18:12:19.531Z,26.60
2019-06-23T18:14:48.631Z,26.60
2019-06-23T18:17:17.578Z,26.60
2019-06-23T18:19:46.468Z,26.60
2019-06-23T18:22:15.407Z,26.50
2019-06-23T18:24:44.390Z,26.50
2019-06-23T18:27:13.473Z,26.50
2019-06-23T18:29:42.598Z,26.50
2019-06-23T18:32:11.544Z,26.50
2019-06-23T18:34:40.612Z,26.50
2019-06-23T18:37:09.573Z,26.40
2019-06-23T18:39:38.677Z,26.30
2019-06-23T18:42:07.651Z,26.30
2019-06-23T18:44:36.745Z,26.30
2019-06-23T18:47:05.807Z,26.30
2019-06-23T18:49:34.748Z,26.20
2019-06-23T18:52:03.772Z,26.20
2019-06-23T18:54:32.775Z,26.20
2019-06-23T18:57:01.800Z,26.10
2019-06-23T18:59:30.783Z,26.10
2019-06-23T19:01:59.830Z,26.00
2019-06-23T19:04:28.830Z,26.00
2019-06-23T19:06:57.970Z,25.90
2019-06-23T19:09:26.904Z,25.90
2019-06-23T19:11:56.079Z,25.80
2019-06-23T19:14:25.271Z,25.80
2019-06-23T19:16:55.298Z,25.80
2019-06-23T19:19:24.309Z,25.80
2019-06-23T19:21:53.370Z,25.70
2019-06-23T19:24:22.463Z,25.70
2019-06-23T19:26:51.522Z,25.60
2019-06-23T19:29:20.567Z,25.50
2019-06-23T19:31:49.796Z,25.50
2019-06-23T19:34:19.317Z,25.50
2019-06-23T19:36:48.470Z,25.40
2019-06-23T19:39:17.502Z,25.30
2019-06-23T19:41:46.561Z,25.30
2019-06-23T19:44:15.561Z,25.30
2019-06-23T19:46:44.892Z,25.20
2019-06-23T19:49:16.408Z,25.20
2019-06-23T19:51:46.221Z,25.20
2019-06-23T19:54:16.193Z,25.10
2019-06-23T19:56:45.350Z,25.00
2019-06-23T19:59:14.461Z,25.00
2019-06-23T20:01:43.528Z,24.90
2019-06-23T20:04:12.713Z,24.80
2019-06-23T20:06:41.993Z,24.80
2019-06-23T20:09:12.008Z,24.70
2019-06-23T20:11:41.382Z,24.70
2019-06-23T20:14:25.857Z,24.60
2019-06-23T20:16:41.375Z,24.60
2019-06-23T20:19:10.646Z,24.50
2019-06-23T20:21:42.552Z,24.50
2019-06-23T20:24:12.046Z,24.50
2019-06-23T20:26:41.234Z,24.30
2019-06-23T20:29:10.403Z,24.30
2019-06-23T20:31:39.457Z,24.20
2019-06-23T20:34:08.729Z,24.20
2019-06-23T20:36:37.820Z,24.20
2019-06-23T20:39:07.446Z,24.10
2019-06-23T20:41:36.493Z,24.10
2019-06-23T20:44:06.537Z,24.00
2019-06-23T20:46:35.492Z,24.00
2019-06-23T20:49:04.543Z,24.00
2019-06-23T20:51:33.636Z,24.00
2019-06-23T20:54:03.023Z,23.90
2019-06-23T20:56:32.135Z,23.80
2019-06-23T20:59:01.272Z,23.80
2019-06-23T21:01:30.329Z,23.70
2019-06-23T21:03:59.377Z,23.60
2019-06-23T21:06:28.349Z,23.60
2019-06-23T21:08:57.280Z,23.60
2019-06-23T21:11:26.302Z,23.40
2019-06-23T21:13:55.229Z,23.40
2019-06-23T21:16:24.239Z,23.30
2019-06-23T21:18:55.263Z,23.30
2019-06-23T21:21:24.160Z,23.30
2019-06-23T21:23:53.243Z,23.20
2019-06-23T21:26:22.231Z,23.20
2019-06-23T21:28:51.231Z,23.10
2019-06-23T21:31:21.553Z,23.00
2019-06-23T21:33:50.571Z,22.90
2019-06-23T21:36:19.690Z,22.90
2019-06-23T21:38:48.554Z,22.90
2019-06-23T21:41:17.711Z,22.80
2019-06-23T21:43:46.586Z,22.70
2019-06-23T21:46:15.790Z,22.70
2019-06-23T21:48:46.617Z,22.70
2019-06-23T21:51:15.535Z,22.70
2019-06-23T21:53:44.747Z,22.70
2019-06-23T21:56:16.399Z,22.50
2019-06-23T21:58:44.423Z,22.40
2019-06-23T22:01:16.734Z,22.30
2019-06-23T22:03:45.883Z,22.20
2019-06-23T22:06:14.970Z,22.10
2019-06-23T22:08:44.398Z,22.10
2019-06-23T22:11:13.459Z,22.00
2019-06-23T22:13:42.516Z,22.10
2019-06-23T22:16:11.414Z,22.10
2019-06-23T22:18:40.366Z,22.10
2019-06-23T22:21:09.294Z,22.10
2019-06-23T22:23:38.959Z,22.10
2019-06-23T22:26:08.034Z,22.10
2019-06-23T22:28:37.131Z,22.00
2019-06-23T22:31:06.124Z,22.00
2019-06-23T22:33:35.108Z,22.00
2019-06-23T22:36:04.230Z,22.00
2019-06-23T22:38:33.227Z,21.90
2019-06-23T22:41:02.102Z,21.80
2019-06-23T22:43:31.094Z,21.80
2019-06-23T22:46:00.151Z,21.70
2019-06-23T22:48:29.053Z,21.80
2019-06-23T22:50:58.014Z,21.70
2019-06-23T22:53:26.909Z,21.70
2019-06-23T22:55:55.803Z,21.60
2019-06-23T22:58:24.858Z,21.60
2019-06-23T23:00:53.802Z,21.50
2019-06-23T23:03:22.818Z,21.50
2019-06-23T23:05:51.867Z,21.50
2019-06-23T23:08:20.784Z,21.40
2019-06-23T23:10:49.895Z,21.40
2019-06-23T23:13:18.852Z,21.40
2019-06-23T23:16:02.774Z,21.30
2019-06-23T23:18:18.402Z,21.30
2019-06-23T23:20:47.293Z,21.20
2019-06-23T23:23:16.254Z,21.20
2019-06-23T23:25:45.190Z,21.20
2019-06-23T23:28:14.103Z,21.10
2019-06-23T23:30:43.129Z,21.10
2019-06-23T23:33:12.241Z,21.00
2019-06-23T23:35:41.163Z,21.00
2019-06-23T23:38:10.038Z,21.00
2019-06-23T23:40:38.950Z,21.00
2019-06-23T23:43:08.006Z,21.00
2019-06-23T23:45:37.001Z,20.90
2019-06-23T23:48:05.993Z,20.80
2019-06-23T23:50:34.928Z,20.80
2019-06-23T23:53:04.015Z,20.80
2019-06-23T23:55:32.988Z,20.80
2019-06-23T23:58:01.923Z,20.80
